Willard, WI (54493)

10:29 PM CDT on May 23, 2017 (GMT -0500)
Backyard, N. Andrews Ave | | Change Station

Elev 1161 ft 44.77 °N, 90.60 °W | Updated 10 seconds ago

Overcast
Overcast
53.6 °F
Feels Like 53.6 °F
N
7.4
Wind Variable Wind from ENE
Gusts 11.9 mph

Today
High -- | Low -- °F
--% Chance of Precip.
Yesterday
High -- | Low -- °F
Precip. -- in
Pressure 29.78 in
Visibility 10.0 miles
Clouds Scattered Clouds 6000 ft
Overcast 9000 ft
Dew Point 48 °F
Humidity 81%
Rainfall 0.11 in
Snow Depth Not available.
5:26 AM 8:33 PM
Waning Crescent, 4% visible
METAR KMFI 240254Z AUTO 09007KT 10SM SCT060 OVC090 11/06 A2977 RMK AO2 SLP084 T01110061 51007
Pressure 29.78 in
Visibility 10.0 miles
Clouds Scattered Clouds 6000 ft
Overcast 9000 ft
Dew Point 48 °F
Humidity 81%
Rainfall 0.11 in
Snow Depth Not available.
5:26 AM 8:33 PM
Waning Crescent, 4% visible
METAR KMFI 240254Z AUTO 09007KT 10SM SCT060 OVC090 11/06 A2977 RMK AO2 SLP084 T01110061 51007

Get Severe Weather Alerts

Thanks for signing up!

Be on the lookout for a verification email in your inbox.

You'll start receiving the daily forecast at 6 AM.

×

10-Day Weather Forecast

Almanac

Astronomy

May. 23, 2017 Rise Set
Actual Time
Civil Twilight
Nautical Twilight
Astronomical Twilight
Moon
Length of Visible Light
Length of Day
Tomorrow will be .
, % of the Moon is Illuminated

Today's Extremes

State Highs State Lows

Community

WunderPhotos

Category 6

Welcome to Category 6. This is the collective home for Weather Underground's featured writeups by Dr. Jeff Masters (right), Bob Henson (left), Chris Burt, and other regular contributors.

Nearby

Air Quality

  Air Quality AQ Index Pollutant
Not available.

Snow Depth

Station Depth Elevation

Earthquake Activity

City Distance Mag. Time & Date
Minimum magnitude displayed is 2.5.

Coastal Water Temperatures

Place Temperature

Stations

Nearby Weather Stations

Station Location Temp. Windchill Dew Point Humidity Wind Precip. Elev Updated Type
                   

Watches & Warnings

There are currently no watches in effect.